Time;durP1;ratioP1;P1;durP2;ratioP2;P2;SDS_P1;SDS_P2;PMS_P1;PMS_P2;Temp;Humidity;BMP_temperature;BMP_pressure;BME280_temperature;BME280_humidity;BME280_pressure;Samples;Min_cycle;Max_cycle;Signal;HPM_P1;HPM_P2
2023/06/23 00:00:25;;;;;;;4.10;1.55;;;21.60;99.10;;;;;;5112776;28;20407;-64
2023/06/23 00:02:52;;;;;;;3.63;1.70;;;21.50;99.10;;;;;;5112501;27;20492;-64
2023/06/23 00:05:18;;;;;;;3.65;1.70;;;21.40;99.00;;;;;;5112808;28;20035;-64
2023/06/23 00:07:46;;;;;;;7.40;1.67;;;21.40;98.80;;;;;;5114452;27;20043;-64
2023/06/23 00:10:12;;;;;;;;;;;21.30;99.40;;;;;;5112633;27;20044;-64
2023/06/23 00:12:43;;;;;;;4.82;1.92;;;21.30;99.40;;;;;;5112263;27;19920;-64
2023/06/23 00:15:12;;;;;;;3.03;1.60;;;21.20;99.30;;;;;;5093129;28;20756;-65
2023/06/23 00:17:43;;;;;;;3.78;1.70;;;21.20;99.60;;;;;;5111914;27;20063;-65
2023/06/23 00:20:12;;;;;;;4.05;2.00;;;21.10;99.50;;;;;;5113119;27;20059;-65
2023/06/23 00:22:40;;;;;;;6.32;1.85;;;21.00;99.90;;;;;;5111878;28;20069;-65
2023/06/23 00:25:11;;;;;;;8.68;1.70;;;21.00;99.90;;;;;;5114189;27;20567;-65
2023/06/23 00:27:38;;;;;;;3.63;1.45;;;20.90;99.90;;;;;;5112414;27;20067;-65
2023/06/23 00:30:06;;;;;;;3.75;1.58;;;20.80;99.90;;;;;;5094896;28;20036;-65
2023/06/23 00:32:33;;;;;;;4.28;1.92;;;20.70;99.90;;;;;;5113936;27;20045;-65
2023/06/23 00:35:00;;;;;;;4.10;1.45;;;20.50;99.90;;;;;;5093953;28;20320;-65
2023/06/23 00:37:30;;;;;;;2.97;1.70;;;20.50;99.90;;;;;;5111870;27;20028;-65
2023/06/23 00:39:58;;;;;;;5.65;1.65;;;20.50;99.90;;;;;;5111933;27;20048;-65
2023/06/23 00:42:25;;;;;;;4.82;1.70;;;20.40;99.90;;;;;;5110154;27;20122;-65
2023/06/23 00:44:53;;;;;;;6.35;1.67;;;20.30;99.90;;;;;;5093822;28;20043;-65
2023/06/23 00:47:20;;;;;;;3.92;1.90;;;20.30;99.90;;;;;;5093631;28;20046;-65
2023/06/23 00:49:48;;;;;;;4.03;1.58;;;20.20;99.90;;;;;;5111792;28;20031;-65
2023/06/23 00:52:16;;;;;;;4.38;1.85;;;20.20;99.90;;;;;;5111485;28;20044;-65
2023/06/23 00:54:42;;;;;;;;;;;20.10;99.90;;;;;;5112347;28;20043;-65
2023/06/23 00:57:11;;;;;;;10.20;2.08;;;20.00;99.90;;;;;;5110518;27;19920;-65
2023/06/23 00:59:38;;;;;;;10.25;2.50;;;20.00;99.90;;;;;;5093578;28;20058;-65
2023/06/23 01:02:05;;;;;;;13.15;3.65;;;19.80;99.90;;;;;;5092883;28;20139;-65
2023/06/23 01:04:33;;;;;;;9.68;2.95;;;19.50;99.90;;;;;;5110573;28;20051;-65
2023/06/23 01:07:16;;;;;;;11.43;3.08;;;19.00;99.90;;;;;;5093197;28;20504;-65
2023/06/23 01:10:07;;;;;;;9.60;2.85;;;18.50;99.90;;;;;;5111716;28;20400;-65
2023/06/23 01:12:41;;;;;;;11.50;2.78;;;18.20;99.90;;;;;;5111653;27;20441;-65
2023/06/23 01:15:14;;;;;;;9.52;2.58;;;18.00;99.90;;;;;;5093180;28;20050;-65
2023/06/23 01:17:53;;;;;;;9.85;2.75;;;17.90;99.90;;;;;;5093362;28;20051;-65
2023/06/23 01:20:29;;;;;;;8.13;2.58;;;18.00;99.90;;;;;;5093191;28;20047;-65
2023/06/23 01:23:20;;;;;;;3.58;2.05;;;17.90;99.90;;;;;;5112637;28;20042;-65
2023/06/23 01:26:35;;;;;;;6.32;2.40;;;17.80;99.90;;;;;;5109389;28;20052;-65
2023/06/23 01:29:09;;;;;;;11.82;3.03;;;17.80;99.90;;;;;;5116110;27;20047;-65
2023/06/23 01:31:44;;;;;;;5.97;2.20;;;17.70;99.90;;;;;;5096756;27;20047;-65
2023/06/23 01:34:20;;;;;;;6.80;2.30;;;17.70;99.90;;;;;;5113801;28;20048;-65
2023/06/23 01:36:54;;;;;;;6.78;2.30;;;17.60;99.90;;;;;;5111279;28;20071;-65
2023/06/23 01:39:22;;;;;;;6.18;2.58;;;17.60;99.90;;;;;;5097113;28;20048;-65
2023/06/23 01:42:02;;;;;;;7.57;2.72;;;17.50;99.90;;;;;;5097824;28;20043;-65
2023/06/23 01:44:32;;;;;;;7.60;2.65;;;17.50;99.90;;;;;;5100131;27;20036;-65
2023/06/23 01:47:03;;;;;;;9.10;2.95;;;17.50;99.90;;;;;;5097119;28;20039;-65
2023/06/23 01:49:36;;;;;;;5.65;2.22;;;17.50;99.90;;;;;;5099575;28;20062;-65
2023/06/23 01:52:06;;;;;;;6.30;2.30;;;17.60;99.90;;;;;;5096504;28;20054;-65
2023/06/23 01:54:37;;;;;;;10.15;2.85;;;17.60;99.90;;;;;;5096859;27;20048;-65
2023/06/23 01:57:06;;;;;;;10.00;3.20;;;17.60;99.90;;;;;;5096810;28;20050;-65
2023/06/23 01:59:36;;;;;;;9.23;3.30;;;17.60;99.90;;;;;;5096806;28;20523;-65
2023/06/23 02:02:06;;;;;;;10.98;2.90;;;17.50;99.90;;;;;;5096273;28;20126;-65
2023/06/23 02:04:35;;;;;;;5.70;2.58;;;17.60;99.90;;;;;;5123617;27;20039;-65
2023/06/23 02:07:02;;;;;;;11.60;2.67;;;17.50;99.90;;;;;;5121267;27;20115;-65
2023/06/23 02:09:30;;;;;;;7.63;2.45;;;17.50;99.90;;;;;;5121973;27;20189;-65
2023/06/23 02:11:58;;;;;;;4.63;2.45;;;17.40;99.90;;;;;;5144295;27;20378;-64
2023/06/23 02:14:28;;;;;;;5.15;2.50;;;17.20;99.90;;;;;;5117900;27;20047;-64
2023/06/23 02:16:57;;;;;;;6.60;3.20;;;17.20;99.90;;;;;;5126082;27;20039;-64
2023/06/23 02:19:25;;;;;;;6.85;2.63;;;17.20;99.90;;;;;;5138890;27;20390;-65
2023/06/23 02:21:53;;;;;;;7.85;2.88;;;17.20;99.90;;;;;;5143105;27;20368;-65
2023/06/23 02:24:21;;;;;;;9.88;2.47;;;17.20;99.90;;;;;;5120523;27;20047;-65
2023/06/23 02:26:48;;;;;;;12.98;2.63;;;17.20;99.90;;;;;;5122426;27;20035;-65
2023/06/23 02:29:17;;;;;;;6.95;2.50;;;17.10;99.90;;;;;;5140681;27;20122;-64
2023/06/23 02:31:44;;;;;;;6.32;2.97;;;17.00;99.90;;;;;;5141357;27;20039;-65
2023/06/23 02:34:11;;;;;;;5.53;2.40;;;17.00;99.90;;;;;;5122964;27;20047;-64
2023/06/23 02:36:46;;;;;;;7.15;2.47;;;16.90;99.90;;;;;;5120217;27;20050;-65
2023/06/23 02:39:17;;;;;;;5.82;2.03;;;16.90;99.90;;;;;;5115294;27;20047;-65
2023/06/23 02:41:48;;;;;;;5.43;2.17;;;16.90;99.90;;;;;;5135163;27;20038;-65
2023/06/23 02:44:20;;;;;;;6.32;2.65;;;17.00;99.90;;;;;;5124216;27;20491;-64
2023/06/23 02:46:56;;;;;;;5.78;2.42;;;17.00;99.90;;;;;;5146216;27;20111;-64
2023/06/23 02:49:26;;;;;;;4.00;2.42;;;17.00;99.90;;;;;;5142388;27;20138;-65
2023/06/23 02:51:58;;;;;;;4.88;2.33;;;16.80;99.90;;;;;;5123304;27;20047;-65
2023/06/23 02:54:31;;;;;;;6.57;2.47;;;17.00;99.90;;;;;;5124092;27;20045;-65
2023/06/23 02:56:58;;;;;;;8.65;2.35;;;17.00;99.90;;;;;;5138247;27;20065;-65
2023/06/23 02:59:26;;;;;;;8.07;2.70;;;17.00;99.90;;;;;;5144146;27;20043;-65
2023/06/23 03:01:56;;;;;;;5.30;2.42;;;16.90;99.90;;;;;;5138213;27;20035;-65
2023/06/23 03:04:23;;;;;;;5.13;1.95;;;16.90;99.90;;;;;;5126244;27;20039;-65
2023/06/23 03:06:52;;;;;;;7.30;2.75;;;16.90;99.90;;;;;;5145891;27;20069;-65
2023/06/23 03:09:19;;;;;;;8.38;2.40;;;16.90;99.90;;;;;;5143500;27;20110;-65
2023/06/23 03:11:45;;;;;;;6.53;2.28;;;17.00;99.90;;;;;;5123018;27;20087;-65
2023/06/23 03:14:12;;;;;;;4.65;2.25;;;17.00;99.90;;;;;;5124945;27;20031;-65
2023/06/23 03:16:55;;;;;;;6.90;2.30;;;17.00;99.90;;;;;;5127533;27;20122;-65
2023/06/23 03:19:41;;;;;;;4.68;2.10;;;17.00;99.90;;;;;;5140560;27;20035;-65
2023/06/23 03:22:15;;;;;;;4.18;2.38;;;17.10;99.90;;;;;;5139703;27;20043;-65
2023/06/23 03:24:47;;;;;;;6.00;2.70;;;17.10;99.90;;;;;;5141820;27;20070;-65
2023/06/23 03:27:14;;;;;;;4.63;2.70;;;17.20;99.90;;;;;;5139696;27;20074;-64
2023/06/23 03:29:53;;;;;;;5.95;2.10;;;17.20;99.90;;;;;;5142361;27;20046;-64
2023/06/23 03:32:28;;;;;;;14.07;2.55;;;17.30;99.90;;;;;;5141327;27;20043;-64
2023/06/23 03:35:03;;;;;;;5.07;2.47;;;17.30;99.90;;;;;;5127278;27;20061;-64
2023/06/23 03:37:33;;;;;;;5.38;2.33;;;17.30;99.90;;;;;;5146445;27;20031;-64
2023/06/23 03:40:09;;;;;;;6.40;2.22;;;17.30;99.90;;;;;;5142681;27;20525;-65
2023/06/23 03:42:41;;;;;;;6.85;2.80;;;17.20;99.90;;;;;;5143825;27;20041;-64
2023/06/23 03:45:10;;;;;;;3.92;2.25;;;17.20;99.90;;;;;;5145364;27;20039;-64
2023/06/23 03:47:40;;;;;;;4.95;2.33;;;17.20;99.90;;;;;;5145347;27;20035;-64
2023/06/23 03:50:19;;;;;;;4.75;2.13;;;17.10;99.90;;;;;;5125767;27;20031;-65
2023/06/23 03:52:47;;;;;;;5.45;2.40;;;17.00;99.90;;;;;;5146882;27;20046;-64
2023/06/23 03:55:17;;;;;;;3.95;2.10;;;16.90;99.90;;;;;;5145930;27;20491;-64
2023/06/23 03:57:45;;;;;;;5.68;2.38;;;17.00;99.90;;;;;;5143440;27;20058;-64
2023/06/23 04:00:12;;;;;;;5.40;2.80;;;17.00;99.90;;;;;;5145368;27;20042;-65
2023/06/23 04:02:43;;;;;;;5.50;2.28;;;17.00;99.90;;;;;;5147164;27;20587;-65
2023/06/23 04:05:13;;;;;;;6.80;2.17;;;17.00;99.90;;;;;;5135597;27;20479;-64
2023/06/23 04:07:42;;;;;;;5.88;2.33;;;17.00;99.90;;;;;;5138531;27;20084;-64
2023/06/23 04:10:11;;;;;;;4.53;2.08;;;17.00;99.90;;;;;;5142017;27;20043;-64
2023/06/23 04:12:38;;;;;;;7.10;2.47;;;17.00;99.90;;;;;;5145467;27;20046;-65
2023/06/23 04:15:08;;;;;;;3.55;2.03;;;17.00;99.90;;;;;;5144583;27;20039;-64
2023/06/23 04:17:40;;;;;;;8.30;2.10;;;17.00;99.90;;;;;;5139431;27;20039;-64
2023/06/23 04:20:09;;;;;;;5.78;2.42;;;17.00;99.90;;;;;;5144472;27;20406;-64
2023/06/23 04:22:39;;;;;;;3.22;2.08;;;16.90;99.90;;;;;;5146545;27;20057;-64
2023/06/23 04:25:08;;;;;;;4.72;2.30;;;16.90;99.90;;;;;;5144763;27;20035;-64
2023/06/23 04:27:36;;;;;;;5.60;2.55;;;17.00;99.90;;;;;;5138544;27;20034;-64
2023/06/23 04:30:05;;;;;;;5.28;2.40;;;16.90;99.90;;;;;;5144562;27;20045;-64
2023/06/23 04:32:34;;;;;;;10.35;2.42;;;17.00;99.90;;;;;;5121731;27;20086;-64
2023/06/23 04:35:01;;;;;;;6.70;2.90;;;17.00;99.90;;;;;;5144763;27;20066;-65
2023/06/23 04:37:39;;;;;;;8.93;2.50;;;17.10;99.90;;;;;;5139091;27;20042;-64
2023/06/23 04:40:25;;;;;;;5.07;2.40;;;17.10;99.90;;;;;;5140246;27;20039;-64
2023/06/23 04:42:59;;;;;;;6.53;2.35;;;17.10;99.90;;;;;;5139416;27;20487;-64
2023/06/23 04:45:29;;;;;;;5.97;2.28;;;17.10;99.90;;;;;;5123928;27;20104;-64
2023/06/23 04:48:00;;;;;;;4.43;2.55;;;17.10;99.90;;;;;;5132362;27;20046;-64
2023/06/23 04:50:31;;;;;;;6.10;2.42;;;17.10;99.90;;;;;;5132474;27;20062;-64
2023/06/23 04:53:05;;;;;;;4.95;2.97;;;17.00;99.90;;;;;;5112776;27;20065;-64
2023/06/23 04:55:35;;;;;;;5.40;2.90;;;17.00;99.90;;;;;;5123333;27;20074;-64
2023/06/23 04:58:05;;;;;;;3.92;2.33;;;17.10;99.90;;;;;;5131733;27;20039;-64
2023/06/23 05:00:32;;;;;;;4.40;2.50;;;17.10;99.90;;;;;;5110920;27;20123;-64
2023/06/23 05:03:01;;;;;;;7.35;2.60;;;17.10;99.90;;;;;;5133902;27;20102;-64
2023/06/23 05:05:30;;;;;;;6.43;2.97;;;17.10;99.90;;;;;;5130553;27;20050;-64
2023/06/23 05:08:00;;;;;;;4.78;2.85;;;17.10;99.90;;;;;;5120567;27;20075;-64
2023/06/23 05:10:29;;;;;;;6.50;2.65;;;17.10;99.90;;;;;;5128896;27;20479;-64
2023/06/23 05:13:00;;;;;;;5.10;2.53;;;17.20;99.90;;;;;;5108801;28;20044;-64
2023/06/23 05:15:27;;;;;;;4.78;2.95;;;17.10;99.90;;;;;;5126470;27;20074;-64
2023/06/23 05:17:58;;;;;;;;;;;17.00;99.90;;;;;;5132693;27;20039;-64
2023/06/23 05:20:27;;;;;;;12.07;3.35;;;17.00;99.90;;;;;;5138831;27;20383;-64
2023/06/23 05:22:57;;;;;;;9.48;2.72;;;16.90;99.90;;;;;;5138881;27;20032;-64
2023/06/23 05:25:29;;;;;;;7.03;2.70;;;16.90;99.90;;;;;;5134884;27;20085;-64
2023/06/23 05:28:00;;;;;;;6.32;2.63;;;16.80;99.90;;;;;;5129624;27;20078;-64
2023/06/23 05:30:29;;;;;;;7.60;2.88;;;16.90;99.90;;;;;;5119860;28;20503;-64
2023/06/23 05:32:59;;;;;;;4.30;2.60;;;16.90;99.90;;;;;;5130176;27;20039;-64
2023/06/23 05:35:31;;;;;;;5.88;2.85;;;17.00;99.90;;;;;;5125839;27;20054;-64
2023/06/23 05:38:01;;;;;;;5.50;2.50;;;17.00;99.90;;;;;;5131741;28;20415;-64
2023/06/23 05:40:28;;;;;;;6.32;2.30;;;17.10;99.90;;;;;;5122848;28;20541;-64
2023/06/23 05:42:55;;;;;;;5.75;2.33;;;17.00;99.90;;;;;;5130480;28;20032;-64
2023/06/23 05:45:22;;;;;;;5.20;2.63;;;17.00;99.90;;;;;;5130984;28;20127;-64
2023/06/23 05:47:57;;;;;;;7.97;2.83;;;17.10;99.90;;;;;;5129341;28;20507;-64
2023/06/23 05:50:27;;;;;;;7.63;3.10;;;17.20;99.90;;;;;;5123518;28;20051;-64
2023/06/23 05:53:08;;;;;;;7.97;3.17;;;17.20;99.90;;;;;;5131373;28;20035;-64
2023/06/23 05:55:40;;;;;;;16.05;3.58;;;17.20;99.90;;;;;;5132818;27;20043;-64
2023/06/23 05:58:10;;;;;;;11.35;3.83;;;17.30;99.90;;;;;;5140361;27;20035;-64
2023/06/23 06:00:53;;;;;;;7.38;3.45;;;17.30;99.90;;;;;;5131663;27;20053;-64
2023/06/23 06:03:26;;;;;;;9.65;3.40;;;17.40;99.90;;;;;;5138343;27;20110;-64
2023/06/23 06:05:55;;;;;;;6.90;3.47;;;17.60;99.90;;;;;;5133656;27;20072;-64
2023/06/23 06:08:23;;;;;;;8.85;3.67;;;17.70;99.90;;;;;;5131654;27;20131;-64
2023/06/23 06:10:51;;;;;;;6.28;3.35;;;17.80;99.90;;;;;;5118915;28;20070;-64
2023/06/23 06:13:19;;;;;;;5.70;3.40;;;17.90;99.90;;;;;;5136442;27;20031;-64
2023/06/23 06:15:47;;;;;;;5.63;2.42;;;17.90;99.90;;;;;;5147727;27;20038;-64
2023/06/23 06:18:16;;;;;;;7.50;2.88;;;18.00;99.90;;;;;;5127530;27;20057;-64
2023/06/23 06:20:45;;;;;;;6.70;2.78;;;17.90;99.90;;;;;;5123602;27;20047;-64
2023/06/23 06:23:15;;;;;;;4.63;2.67;;;17.80;99.90;;;;;;5133278;27;20436;-64
2023/06/23 06:25:51;;;;;;;9.65;3.13;;;17.80;99.90;;;;;;5133610;27;20043;-64
2023/06/23 06:28:25;;;;;;;5.85;2.70;;;17.70;99.90;;;;;;5126077;27;20044;-64
2023/06/23 06:30:53;;;;;;;5.10;2.63;;;17.50;99.90;;;;;;5125536;27;20054;-64
2023/06/23 06:33:21;;;;;;;6.28;2.30;;;17.40;99.90;;;;;;5132890;27;20047;-64
2023/06/23 06:35:51;;;;;;;3.40;2.42;;;17.40;99.90;;;;;;5134652;27;20039;-64
2023/06/23 06:38:20;;;;;;;6.82;2.80;;;17.30;99.90;;;;;;5129406;27;20043;-64
2023/06/23 06:40:50;;;;;;;6.43;2.90;;;17.30;99.90;;;;;;5134454;27;20075;-64
2023/06/23 06:43:17;;;;;;;9.43;3.40;;;17.20;99.90;;;;;;5134118;27;20463;-64
2023/06/23 06:45:45;;;;;;;;;;;17.20;99.90;;;;;;5116457;27;20499;-64
2023/06/23 06:48:13;;;;;;;6.82;2.55;;;17.20;99.90;;;;;;5127455;27;20304;-64
2023/06/23 06:50:41;;;;;;;5.75;2.72;;;17.20;99.90;;;;;;5133300;27;20039;-64
2023/06/23 06:53:09;;;;;;;5.57;2.70;;;17.20;99.90;;;;;;5133972;27;20042;-64
2023/06/23 06:55:38;;;;;;;6.45;2.88;;;17.20;99.90;;;;;;5134467;27;20057;-64
2023/06/23 06:58:05;;;;;;;3.67;2.00;;;17.10;99.90;;;;;;5127713;27;20055;-64
2023/06/23 07:00:32;;;;;;;8.77;2.72;;;17.20;99.90;;;;;;5133946;27;20071;-64
2023/06/23 07:02:59;;;;;;;8.88;3.45;;;17.10;99.90;;;;;;5127667;27;20038;-64
2023/06/23 07:05:26;;;;;;;11.15;4.00;;;17.20;99.90;;;;;;5134376;27;20039;-64
2023/06/23 07:07:53;;;;;;;13.52;3.30;;;17.20;99.90;;;;;;5130108;27;20450;-64
2023/06/23 07:10:20;;;;;;;6.18;3.30;;;17.20;99.90;;;;;;5133757;27;20550;-64
2023/06/23 07:12:47;;;;;;;7.10;3.50;;;17.20;99.90;;;;;;5132568;27;20475;-64
2023/06/23 07:15:14;;;;;;;5.85;3.55;;;17.20;99.90;;;;;;5134054;27;20035;-64
2023/06/23 07:17:41;;;;;;;;;;;17.30;99.90;;;;;;5122684;27;20040;-64
2023/06/23 07:20:08;;;;;;;7.43;2.67;;;17.30;99.90;;;;;;5134097;27;19926;-64
2023/06/23 07:22:36;;;;;;;7.75;3.10;;;17.30;99.90;;;;;;5132831;27;20407;-64
2023/06/23 07:25:03;;;;;;;9.70;3.30;;;17.30;99.90;;;;;;5133975;27;20732;-64
2023/06/23 07:27:29;;;;;;;9.63;3.90;;;17.30;99.90;;;;;;5130756;27;20035;-64
2023/06/23 07:29:58;;;;;;;10.15;4.35;;;17.40;99.90;;;;;;5134250;27;20445;-64
2023/06/23 07:32:25;;;;;;;9.05;3.50;;;17.40;99.90;;;;;;5131296;27;20523;-64
2023/06/23 07:34:52;;;;;;;;;;;17.50;99.90;;;;;;5134310;27;20043;-63
2023/06/23 07:37:19;;;;;;;8.60;3.75;;;17.50;99.90;;;;;;5132922;27;19926;-64
2023/06/23 07:39:46;;;;;;;7.88;3.28;;;17.60;99.90;;;;;;5132125;27;20039;-64
2023/06/23 07:42:13;;;;;;;8.63;3.47;;;17.60;99.90;;;;;;5130684;27;20050;-64
2023/06/23 07:44:40;;;;;;;9.20;3.47;;;17.70;99.90;;;;;;5133410;27;20043;-64
2023/06/23 07:47:07;;;;;;;9.98;4.00;;;17.70;99.90;;;;;;5123983;27;20054;-64
2023/06/23 07:49:34;;;;;;;8.82;3.83;;;17.70;99.90;;;;;;5133307;27;20047;-63
2023/06/23 07:52:01;;;;;;;6.97;3.33;;;17.80;99.90;;;;;;5132192;27;20039;-64
2023/06/23 07:54:30;;;;;;;6.85;3.25;;;17.70;99.90;;;;;;5124352;27;20308;-64
2023/06/23 07:56:58;;;;;;;7.55;3.67;;;17.70;99.90;;;;;;5125870;27;20121;-64
2023/06/23 07:59:25;;;;;;;4.90;3.05;;;17.70;99.90;;;;;;5132492;27;20046;-63
2023/06/23 08:01:52;;;;;;;;;;;17.70;99.90;;;;;;5131160;27;20031;-64
2023/06/23 08:04:20;;;;;;;6.32;3.33;;;17.70;99.90;;;;;;5133499;27;19919;-64
2023/06/23 08:06:47;;;;;;;7.32;3.45;;;17.80;99.90;;;;;;5132627;27;20413;-64
2023/06/23 08:09:15;;;;;;;9.82;3.63;;;17.90;99.90;;;;;;5132325;27;20043;-64
2023/06/23 08:11:42;;;;;;;11.70;4.38;;;18.00;99.90;;;;;;5122800;27;20050;-64
2023/06/23 08:14:09;;;;;;;11.95;4.30;;;17.90;99.90;;;;;;5132898;27;20053;-64
2023/06/23 08:16:36;;;;;;;4.75;2.38;;;17.70;99.90;;;;;;5125359;27;20047;-64
2023/06/23 08:19:03;;;;;;;6.88;3.30;;;17.50;99.90;;;;;;5132720;27;20051;-64
2023/06/23 08:21:30;;;;;;;7.68;3.03;;;17.40;99.90;;;;;;5131514;27;20027;-64
2023/06/23 08:23:57;;;;;;;4.65;2.78;;;17.30;99.90;;;;;;5127473;27;20047;-64
2023/06/23 08:26:24;;;;;;;8.85;2.60;;;17.30;99.90;;;;;;5129087;27;20035;-64
2023/06/23 08:28:51;;;;;;;7.53;3.15;;;17.10;99.90;;;;;;5132208;27;20464;-64
2023/06/23 08:31:18;;;;;;;9.02;3.60;;;16.90;99.90;;;;;;5132219;27;20509;-64
2023/06/23 08:33:44;;;;;;;10.65;4.43;;;16.80;99.90;;;;;;5124342;27;20058;-64
2023/06/23 08:36:11;;;;;;;3.92;2.88;;;16.80;99.90;;;;;;5131746;27;20491;-64
2023/06/23 08:38:38;;;;;;;5.40;3.80;;;16.80;99.90;;;;;;5125422;27;20040;-63
2023/06/23 08:41:06;;;;;;;11.30;4.28;;;16.90;99.90;;;;;;5131974;27;20507;-64
2023/06/23 08:43:35;;;;;;;6.00;2.85;;;17.10;99.90;;;;;;5131233;27;20070;-64
2023/06/23 08:46:04;;;;;;;4.00;3.15;;;17.10;99.90;;;;;;5119071;27;20113;-64
2023/06/23 08:48:31;;;;;;;4.47;2.65;;;17.20;99.90;;;;;;5131832;27;20027;-64
2023/06/23 08:51:00;;;;;;;3.33;2.35;;;17.30;99.90;;;;;;5131471;27;20047;-64
2023/06/23 08:53:28;;;;;;;4.93;2.63;;;17.20;99.90;;;;;;5128891;27;20035;-64
2023/06/23 08:55:55;;;;;;;5.03;2.45;;;17.30;99.90;;;;;;5119241;27;20053;-64
2023/06/23 08:58:24;;;;;;;5.57;3.00;;;17.40;99.90;;;;;;5119477;27;20043;-64
2023/06/23 09:00:52;;;;;;;3.45;2.58;;;17.60;99.90;;;;;;5122184;27;20514;-64
2023/06/23 09:03:20;;;;;;;4.50;2.83;;;17.70;99.90;;;;;;5131934;27;20221;-64
2023/06/23 09:05:47;;;;;;;3.72;2.65;;;17.80;99.90;;;;;;5123977;27;20161;-64
2023/06/23 09:08:14;;;;;;;3.65;2.65;;;18.00;99.90;;;;;;5132304;27;20117;-64
2023/06/23 09:10:41;;;;;;;3.75;2.78;;;18.10;99.90;;;;;;5130951;27;20043;-64
2023/06/23 09:13:08;;;;;;;;;;;18.20;99.90;;;;;;5132088;27;20039;-64
2023/06/23 09:15:35;;;;;;;4.93;2.58;;;18.40;99.90;;;;;;5124261;27;19919;-64
2023/06/23 09:18:21;;;;;;;4.63;2.65;;;18.60;99.90;;;;;;5131896;28;20043;-64
2023/06/23 09:20:49;;;;;;;4.97;2.88;;;18.80;99.90;;;;;;5124394;28;20080;-64
2023/06/23 09:23:19;;;;;;;2.85;2.15;;;18.90;99.90;;;;;;5131063;28;20096;-64
2023/06/23 09:25:50;;;;;;;5.10;3.60;;;19.00;99.90;;;;;;5130795;28;20031;-64
2023/06/23 09:28:22;;;;;;;5.18;3.10;;;19.20;99.90;;;;;;5125068;27;20039;-64
2023/06/23 09:30:50;;;;;;;5.60;3.10;;;19.30;99.90;;;;;;5131283;27;20031;-64
2023/06/23 09:33:18;;;;;;;5.15;3.25;;;19.30;99.90;;;;;;5131120;28;20035;-64
2023/06/23 09:35:55;;;;;;;4.32;3.03;;;19.50;99.90;;;;;;5131815;28;20552;-64
2023/06/23 09:38:24;;;;;;;3.95;2.60;;;19.80;99.90;;;;;;5124974;28;20047;-64
2023/06/23 09:41:06;;;;;;;7.07;4.00;;;20.10;99.90;;;;;;5131663;28;20046;-64
2023/06/23 09:43:40;;;;;;;6.03;3.10;;;20.40;99.90;;;;;;5131544;27;20062;-64
2023/06/23 09:46:08;;;;;;;4.75;3.80;;;20.50;99.90;;;;;;5125474;27;20027;-64
2023/06/23 09:48:39;;;;;;;4.40;3.30;;;20.70;99.90;;;;;;5135729;27;20130;-64
2023/06/23 09:51:06;;;;;;;4.82;3.40;;;20.90;99.90;;;;;;5134371;27;20039;-64
2023/06/23 09:53:35;;;;;;;5.40;3.75;;;20.90;99.90;;;;;;5133087;27;20097;-64
2023/06/23 09:56:04;;;;;;;8.20;4.30;;;20.80;99.90;;;;;;5128863;27;20050;-64
2023/06/23 09:58:35;;;;;;;3.88;3.20;;;20.70;99.90;;;;;;5135340;27;20039;-64
2023/06/23 10:01:10;;;;;;;5.78;3.75;;;20.60;99.90;;;;;;5135391;27;20057;-64
2023/06/23 10:03:51;;;;;;;5.05;3.90;;;20.60;99.90;;;;;;5128989;27;20036;-64
2023/06/23 10:06:25;;;;;;;5.13;3.50;;;20.50;99.90;;;;;;5131129;27;20039;-64
2023/06/23 10:08:57;;;;;;;6.00;4.03;;;20.50;99.90;;;;;;5135369;27;20039;-64
2023/06/23 10:11:30;;;;;;;5.45;4.00;;;20.30;99.90;;;;;;5117297;27;20580;-64
2023/06/23 10:14:00;;;;;;;4.93;3.63;;;20.20;99.90;;;;;;5119171;27;20094;-64
2023/06/23 10:16:28;;;;;;;5.53;3.85;;;20.20;99.90;;;;;;5134570;27;20506;-64
2023/06/23 10:18:55;;;;;;;5.22;3.65;;;20.30;99.90;;;;;;5130425;27;20050;-64
2023/06/23 10:21:23;;;;;;;4.97;3.88;;;20.50;99.90;;;;;;5134781;27;20043;-64
2023/06/23 10:23:53;;;;;;;5.35;3.08;;;20.60;99.90;;;;;;5134491;27;20123;-64
2023/06/23 10:26:22;;;;;;;4.05;3.03;;;20.70;99.90;;;;;;5133371;27;20036;-64
2023/06/23 10:28:50;;;;;;;7.00;4.07;;;20.80;99.90;;;;;;5134787;27;20039;-64
2023/06/23 10:31:17;;;;;;;6.63;3.75;;;21.00;99.90;;;;;;5134111;27;20039;-64
2023/06/23 10:33:46;;;;;;;5.35;3.70;;;21.10;99.90;;;;;;5134882;27;20096;-64
2023/06/23 10:36:17;;;;;;;5.10;4.07;;;21.10;99.90;;;;;;5129950;27;20039;-64
2023/06/23 10:38:49;;;;;;;5.07;3.75;;;21.00;99.90;;;;;;5134699;27;20398;-64
2023/06/23 10:41:18;;;;;;;8.15;4.45;;;20.90;99.90;;;;;;5126876;27;20040;-64
2023/06/23 10:43:48;;;;;;;6.90;4.60;;;20.90;99.90;;;;;;5124993;27;20054;-64
2023/06/23 10:46:16;;;;;;;6.60;3.55;;;20.90;99.90;;;;;;5128622;27;20042;-64
2023/06/23 10:48:43;;;;;;;4.80;3.70;;;21.10;99.90;;;;;;5134496;27;20395;-64
2023/06/23 10:51:11;;;;;;;5.88;3.63;;;21.20;99.90;;;;;;5135408;27;20050;-65
2023/06/23 10:53:45;;;;;;;;;;;21.50;99.90;;;;;;5141534;27;20373;-65
2023/06/23 10:56:30;;;;;;;4.80;3.53;;;21.70;99.90;;;;;;5142192;27;19919;-65
2023/06/23 10:58:57;;;;;;;7.45;4.43;;;21.80;99.90;;;;;;5137164;27;20039;-65
2023/06/23 11:01:26;;;;;;;5.75;4.05;;;21.80;99.90;;;;;;5124020;27;20047;-65
2023/06/23 11:03:58;;;;;;;5.05;3.63;;;21.90;99.90;;;;;;5140020;27;20069;-65
2023/06/23 11:06:43;;;;;;;7.85;4.85;;;21.90;99.90;;;;;;5135774;27;20035;-64
2023/06/23 11:09:45;;;;;;;6.18;4.35;;;22.10;99.90;;;;;;5140818;27;20038;-64
2023/06/23 11:12:29;;;;;;;5.82;4.13;;;22.10;99.90;;;;;;5139645;27;20038;-64
2023/06/23 11:15:24;;;;;;;5.85;4.68;;;22.20;99.90;;;;;;5143880;27;20057;-64
2023/06/23 11:18:05;;;;;;;7.03;4.95;;;22.50;99.90;;;;;;5138594;27;20047;-64
2023/06/23 11:20:35;;;;;;;7.43;5.03;;;22.70;99.90;;;;;;5138239;27;20479;-65
2023/06/23 11:23:06;;;;;;;7.00;4.60;;;23.00;99.90;;;;;;5142260;27;20049;-65
2023/06/23 11:25:37;;;;;;;7.68;4.63;;;23.40;99.90;;;;;;5144524;27;20031;-64
2023/06/23 11:28:36;;;;;;;6.63;4.88;;;23.50;99.90;;;;;;5135058;27;20043;-64
2023/06/23 11:31:18;;;;;;;7.18;5.03;;;23.70;99.90;;;;;;5142143;27;20042;-65
2023/06/23 11:33:59;;;;;;;8.35;5.07;;;24.10;99.90;;;;;;5141282;27;20630;-65
2023/06/23 11:36:29;;;;;;;6.57;4.85;;;24.30;99.90;;;;;;5143712;27;20031;-65
2023/06/23 11:38:57;;;;;;;7.85;5.05;;;24.40;99.90;;;;;;5146042;27;20066;-65
2023/06/23 11:41:28;;;;;;;7.78;5.28;;;24.10;99.90;;;;;;5139424;27;20049;-65
2023/06/23 11:44:00;;;;;;;8.10;5.28;;;23.80;99.90;;;;;;5146835;27;20067;-65
2023/06/23 11:46:31;;;;;;;7.50;5.30;;;23.50;99.90;;;;;;5138815;27;20039;-65
2023/06/23 11:49:07;;;;;;;7.18;5.18;;;23.40;99.90;;;;;;5141217;27;20048;-64
2023/06/23 11:51:35;;;;;;;8.20;4.97;;;23.40;99.90;;;;;;5140258;27;20045;-65
2023/06/23 11:54:02;;;;;;;6.55;4.93;;;23.30;99.90;;;;;;5142063;27;20117;-65
2023/06/23 11:56:29;;;;;;;6.78;5.30;;;23.50;99.90;;;;;;5136169;27;20145;-65
2023/06/23 11:58:56;;;;;;;8.52;5.47;;;23.50;99.90;;;;;;5144601;27;20541;-65
2023/06/23 12:01:23;;;;;;;;;;;23.50;99.90;;;;;;5145129;27;20088;-65
2023/06/23 12:03:52;;;;;;;7.78;5.55;;;23.20;99.90;;;;;;5139414;27;19920;-65
2023/06/23 12:06:22;;;;;;;7.80;5.22;;;22.90;99.90;;;;;;5127519;27;20067;-64
2023/06/23 12:08:50;;;;;;;9.45;5.25;;;22.50;99.90;;;;;;5130950;27;20039;-65
2023/06/23 12:11:21;;;;;;;8.52;5.07;;;22.10;99.90;;;;;;5132170;27;20070;-64
2023/06/23 12:13:52;;;;;;;7.53;5.65;;;21.90;99.90;;;;;;5128426;27;20043;-64
2023/06/23 12:16:18;;;;;;;6.88;4.95;;;21.60;99.90;;;;;;5129773;27;20036;-65
2023/06/23 12:18:49;;;;;;;9.23;5.60;;;21.50;99.90;;;;;;5132403;27;20552;-64
2023/06/23 12:21:18;;;;;;;7.72;5.15;;;21.50;99.90;;;;;;5131967;27;20441;-65
2023/06/23 12:23:45;;;;;;;7.38;5.15;;;21.60;99.90;;;;;;5131039;27;20051;-65
2023/06/23 12:26:15;;;;;;;9.13;5.90;;;21.80;99.90;;;;;;5133022;27;20046;-65
2023/06/23 12:28:42;;;;;;;10.15;5.20;;;21.90;99.90;;;;;;5132314;27;20035;-65
2023/06/23 12:31:09;;;;;;;8.13;6.10;;;22.00;99.90;;;;;;5128628;27;20125;-65
2023/06/23 12:33:40;;;;;;;12.48;6.10;;;22.20;99.90;;;;;;5132489;27;20062;-65
2023/06/23 12:36:08;;;;;;;7.00;5.50;;;22.20;99.90;;;;;;5131486;27;20051;-65
2023/06/23 12:38:36;;;;;;;6.97;5.10;;;22.30;99.90;;;;;;5125125;27;20051;-65
2023/06/23 12:41:26;;;;;;;9.38;5.97;;;22.50;99.90;;;;;;5132516;27;20449;-65
2023/06/23 12:43:59;;;;;;;10.38;5.90;;;22.70;99.90;;;;;;5131846;27;20463;-65
2023/06/23 12:46:27;;;;;;;8.25;5.07;;;22.70;99.90;;;;;;5129750;27;20126;-65
2023/06/23 12:48:55;;;;;;;7.65;5.22;;;22.60;99.90;;;;;;5116055;27;20051;-65
2023/06/23 12:51:32;;;;;;;7.28;5.65;;;22.40;99.90;;;;;;5131528;27;20092;-65
2023/06/23 12:54:02;;;;;;;10.05;5.72;;;22.20;99.90;;;;;;5122061;27;20043;-65
2023/06/23 12:56:29;;;;;;;8.02;5.40;;;22.20;99.90;;;;;;5131410;27;20076;-64
2023/06/23 12:58:57;;;;;;;;;;;22.10;99.90;;;;;;5132118;27;20066;-65
2023/06/23 13:01:24;;;;;;;8.65;5.82;;;22.20;99.90;;;;;;5131658;27;19934;-65
2023/06/23 13:03:51;;;;;;;8.82;5.32;;;22.30;99.90;;;;;;5130561;27;20051;-65